sensor_id;sensor_type;location;lat;lon;timestamp;P1;durP1;ratioP1;P2;durP2;ratioP2
70850;SDS011;58475;49.662;9.636;2023-08-12T00:00:49;5.03;;;2.75;;
70850;SDS011;58475;49.662;9.636;2023-08-12T00:03:15;7.15;;;3.35;;
70850;SDS011;58475;49.662;9.636;2023-08-12T00:05:42;7.05;;;3.10;;
70850;SDS011;58475;49.662;9.636;2023-08-12T00:08:08;6.05;;;3.05;;
70850;SDS011;58475;49.662;9.636;2023-08-12T00:10:33;7.90;;;2.85;;
70850;SDS011;58475;49.662;9.636;2023-08-12T00:12:59;5.60;;;3.00;;
70850;SDS011;58475;49.662;9.636;2023-08-12T00:15:24;9.20;;;3.20;;
70850;SDS011;58475;49.662;9.636;2023-08-12T00:17:50;6.38;;;3.05;;
70850;SDS011;58475;49.662;9.636;2023-08-12T00:20:15;5.82;;;2.85;;
70850;SDS011;58475;49.662;9.636;2023-08-12T00:22:41;6.97;;;3.35;;
70850;SDS011;58475;49.662;9.636;2023-08-12T00:25:06;5.82;;;3.10;;
70850;SDS011;58475;49.662;9.636;2023-08-12T00:27:32;6.43;;;3.30;;
70850;SDS011;58475;49.662;9.636;2023-08-12T00:29:58;10.60;;;3.40;;
70850;SDS011;58475;49.662;9.636;2023-08-12T00:32:23;8.02;;;3.03;;
70850;SDS011;58475;49.662;9.636;2023-08-12T00:34:49;8.18;;;3.40;;
70850;SDS011;58475;49.662;9.636;2023-08-12T00:37:14;5.60;;;3.20;;
70850;SDS011;58475;49.662;9.636;2023-08-12T00:39:39;6.35;;;3.22;;
70850;SDS011;58475;49.662;9.636;2023-08-12T00:42:05;5.25;;;2.92;;
70850;SDS011;58475;49.662;9.636;2023-08-12T00:44:30;7.43;;;3.08;;
70850;SDS011;58475;49.662;9.636;2023-08-12T00:46:56;8.00;;;2.95;;
70850;SDS011;58475;49.662;9.636;2023-08-12T00:49:23;6.78;;;3.40;;
70850;SDS011;58475;49.662;9.636;2023-08-12T00:51:49;6.32;;;2.80;;
70850;SDS011;58475;49.662;9.636;2023-08-12T00:54:15;5.93;;;2.72;;
70850;SDS011;58475;49.662;9.636;2023-08-12T00:56:42;5.80;;;3.22;;
70850;SDS011;58475;49.662;9.636;2023-08-12T00:59:08;5.60;;;3.13;;
70850;SDS011;58475;49.662;9.636;2023-08-12T01:01:35;5.63;;;3.10;;
70850;SDS011;58475;49.662;9.636;2023-08-12T01:04:03;7.55;;;3.20;;
70850;SDS011;58475;49.662;9.636;2023-08-12T01:06:29;6.57;;;3.05;;
70850;SDS011;58475;49.662;9.636;2023-08-12T01:08:54;8.20;;;3.20;;
70850;SDS011;58475;49.662;9.636;2023-08-12T01:11:21;5.35;;;3.15;;
70850;SDS011;58475;49.662;9.636;2023-08-12T01:16:32;6.87;;;3.10;;
70850;SDS011;58475;49.662;9.636;2023-08-12T01:19:02;5.60;;;3.30;;
70850;SDS011;58475;49.662;9.636;2023-08-12T01:21:30;6.28;;;3.20;;
70850;SDS011;58475;49.662;9.636;2023-08-12T01:23:57;6.70;;;3.33;;
70850;SDS011;58475;49.662;9.636;2023-08-12T01:26:23;6.32;;;2.85;;
70850;SDS011;58475;49.662;9.636;2023-08-12T01:28:48;6.63;;;3.42;;
70850;SDS011;58475;49.662;9.636;2023-08-12T01:31:18;7.63;;;4.38;;
70850;SDS011;58475;49.662;9.636;2023-08-12T01:37:14;7.55;;;5.30;;
70850;SDS011;58475;49.662;9.636;2023-08-12T01:39:46;8.65;;;4.95;;
70850;SDS011;58475;49.662;9.636;2023-08-12T01:42:13;8.32;;;5.13;;
70850;SDS011;58475;49.662;9.636;2023-08-12T01:44:40;8.23;;;4.80;;
70850;SDS011;58475;49.662;9.636;2023-08-12T01:47:08;7.43;;;4.25;;
70850;SDS011;58475;49.662;9.636;2023-08-12T01:49:34;8.02;;;4.95;;
70850;SDS011;58475;49.662;9.636;2023-08-12T01:51:59;7.90;;;4.90;;
70850;SDS011;58475;49.662;9.636;2023-08-12T01:54:24;7.90;;;4.70;;
70850;SDS011;58475;49.662;9.636;2023-08-12T01:56:50;7.85;;;4.63;;
70850;SDS011;58475;49.662;9.636;2023-08-12T01:59:15;9.00;;;4.80;;
70850;SDS011;58475;49.662;9.636;2023-08-12T02:01:41;10.80;;;4.68;;
70850;SDS011;58475;49.662;9.636;2023-08-12T02:04:06;8.07;;;4.70;;
70850;SDS011;58475;49.662;9.636;2023-08-12T02:06:31;7.05;;;4.65;;
70850;SDS011;58475;49.662;9.636;2023-08-12T02:08:58;8.40;;;4.43;;
70850;SDS011;58475;49.662;9.636;2023-08-12T02:11:23;7.00;;;4.25;;
70850;SDS011;58475;49.662;9.636;2023-08-12T02:13:49;7.13;;;4.07;;
70850;SDS011;58475;49.662;9.636;2023-08-12T02:16:14;6.38;;;4.20;;
70850;SDS011;58475;49.662;9.636;2023-08-12T02:18:40;6.63;;;4.13;;
70850;SDS011;58475;49.662;9.636;2023-08-12T02:21:05;8.10;;;4.70;;
70850;SDS011;58475;49.662;9.636;2023-08-12T02:23:30;8.75;;;4.68;;
70850;SDS011;58475;49.662;9.636;2023-08-12T02:25:56;6.32;;;4.22;;
70850;SDS011;58475;49.662;9.636;2023-08-12T02:28:21;7.40;;;4.70;;
70850;SDS011;58475;49.662;9.636;2023-08-12T02:30:46;7.18;;;4.50;;
70850;SDS011;58475;49.662;9.636;2023-08-12T02:33:12;7.32;;;4.55;;
70850;SDS011;58475;49.662;9.636;2023-08-12T02:35:37;7.75;;;4.13;;
70850;SDS011;58475;49.662;9.636;2023-08-12T02:38:03;7.07;;;4.13;;
70850;SDS011;58475;49.662;9.636;2023-08-12T02:40:28;7.30;;;3.67;;
70850;SDS011;58475;49.662;9.636;2023-08-12T02:42:54;7.30;;;3.97;;
70850;SDS011;58475;49.662;9.636;2023-08-12T02:45:19;6.70;;;3.53;;
70850;SDS011;58475;49.662;9.636;2023-08-12T02:47:45;7.18;;;3.63;;
70850;SDS011;58475;49.662;9.636;2023-08-12T02:50:10;7.32;;;3.78;;
70850;SDS011;58475;49.662;9.636;2023-08-12T02:52:35;7.57;;;3.78;;
70850;SDS011;58475;49.662;9.636;2023-08-12T02:55:01;6.82;;;3.55;;
70850;SDS011;58475;49.662;9.636;2023-08-12T02:57:26;7.38;;;3.80;;
70850;SDS011;58475;49.662;9.636;2023-08-12T02:59:51;7.15;;;3.53;;
70850;SDS011;58475;49.662;9.636;2023-08-12T03:02:17;8.20;;;4.30;;
70850;SDS011;58475;49.662;9.636;2023-08-12T03:04:42;6.32;;;3.63;;
70850;SDS011;58475;49.662;9.636;2023-08-12T03:07:08;6.30;;;3.47;;
70850;SDS011;58475;49.662;9.636;2023-08-12T03:09:33;9.18;;;4.30;;
70850;SDS011;58475;49.662;9.636;2023-08-12T03:12:00;8.63;;;4.13;;
70850;SDS011;58475;49.662;9.636;2023-08-12T03:14:28;8.27;;;4.60;;
70850;SDS011;58475;49.662;9.636;2023-08-12T03:16:56;8.02;;;4.30;;
70850;SDS011;58475;49.662;9.636;2023-08-12T03:19:21;7.28;;;3.67;;
70850;SDS011;58475;49.662;9.636;2023-08-12T03:21:47;7.90;;;4.10;;
70850;SDS011;58475;49.662;9.636;2023-08-12T03:24:13;6.57;;;4.20;;
70850;SDS011;58475;49.662;9.636;2023-08-12T03:26:38;9.65;;;4.68;;
70850;SDS011;58475;49.662;9.636;2023-08-12T03:29:04;8.18;;;4.50;;
70850;SDS011;58475;49.662;9.636;2023-08-12T03:31:31;7.95;;;4.95;;
70850;SDS011;58475;49.662;9.636;2023-08-12T03:33:57;10.73;;;5.45;;
70850;SDS011;58475;49.662;9.636;2023-08-12T03:36:22;8.35;;;4.85;;
70850;SDS011;58475;49.662;9.636;2023-08-12T03:38:48;6.80;;;4.43;;
70850;SDS011;58475;49.662;9.636;2023-08-12T03:41:17;6.90;;;4.30;;
70850;SDS011;58475;49.662;9.636;2023-08-12T03:43:43;6.72;;;3.72;;
70850;SDS011;58475;49.662;9.636;2023-08-12T03:46:09;9.82;;;4.18;;
70850;SDS011;58475;49.662;9.636;2023-08-12T03:48:34;8.80;;;4.63;;
70850;SDS011;58475;49.662;9.636;2023-08-12T03:50:59;6.88;;;4.10;;
70850;SDS011;58475;49.662;9.636;2023-08-12T03:53:25;7.53;;;4.20;;
70850;SDS011;58475;49.662;9.636;2023-08-12T03:55:52;7.82;;;4.00;;
70850;SDS011;58475;49.662;9.636;2023-08-12T03:58:18;9.45;;;4.60;;
70850;SDS011;58475;49.662;9.636;2023-08-12T04:00:43;7.50;;;4.38;;
70850;SDS011;58475;49.662;9.636;2023-08-12T04:03:10;7.95;;;3.88;;
70850;SDS011;58475;49.662;9.636;2023-08-12T04:05:36;8.63;;;3.95;;
70850;SDS011;58475;49.662;9.636;2023-08-12T04:08:01;7.93;;;3.88;;
70850;SDS011;58475;49.662;9.636;2023-08-12T04:10:28;7.35;;;4.20;;
70850;SDS011;58475;49.662;9.636;2023-08-12T04:12:54;7.50;;;4.10;;
70850;SDS011;58475;49.662;9.636;2023-08-12T04:15:20;6.82;;;3.97;;
70850;SDS011;58475;49.662;9.636;2023-08-12T04:17:45;8.95;;;4.50;;
70850;SDS011;58475;49.662;9.636;2023-08-12T04:20:11;11.05;;;4.40;;
70850;SDS011;58475;49.662;9.636;2023-08-12T04:22:36;8.43;;;4.00;;
70850;SDS011;58475;49.662;9.636;2023-08-12T04:25:02;8.77;;;3.85;;
70850;SDS011;58475;49.662;9.636;2023-08-12T04:27:27;12.10;;;4.00;;
70850;SDS011;58475;49.662;9.636;2023-08-12T04:29:53;6.97;;;3.67;;
70850;SDS011;58475;49.662;9.636;2023-08-12T04:32:19;6.43;;;3.78;;
70850;SDS011;58475;49.662;9.636;2023-08-12T04:34:45;5.82;;;3.65;;
70850;SDS011;58475;49.662;9.636;2023-08-12T04:37:11;6.85;;;4.30;;
70850;SDS011;58475;49.662;9.636;2023-08-12T04:39:37;6.28;;;4.00;;
70850;SDS011;58475;49.662;9.636;2023-08-12T04:42:02;7.43;;;4.13;;
70850;SDS011;58475;49.662;9.636;2023-08-12T04:44:28;7.35;;;4.10;;
70850;SDS011;58475;49.662;9.636;2023-08-12T04:46:54;7.60;;;3.65;;
70850;SDS011;58475;49.662;9.636;2023-08-12T04:49:20;9.18;;;4.25;;
70850;SDS011;58475;49.662;9.636;2023-08-12T04:51:46;8.40;;;4.20;;
70850;SDS011;58475;49.662;9.636;2023-08-12T04:54:11;8.05;;;4.30;;
70850;SDS011;58475;49.662;9.636;2023-08-12T04:56:37;10.65;;;4.70;;
70850;SDS011;58475;49.662;9.636;2023-08-12T04:59:02;8.68;;;5.35;;
70850;SDS011;58475;49.662;9.636;2023-08-12T05:01:28;9.13;;;5.53;;
70850;SDS011;58475;49.662;9.636;2023-08-12T05:03:54;9.10;;;6.32;;
70850;SDS011;58475;49.662;9.636;2023-08-12T05:06:20;9.25;;;6.05;;
70850;SDS011;58475;49.662;9.636;2023-08-12T05:08:45;8.80;;;5.38;;
70850;SDS011;58475;49.662;9.636;2023-08-12T05:11:12;9.68;;;5.80;;
70850;SDS011;58475;49.662;9.636;2023-08-12T05:13:37;8.85;;;5.00;;
70850;SDS011;58475;49.662;9.636;2023-08-12T05:16:03;9.00;;;5.05;;
70850;SDS011;58475;49.662;9.636;2023-08-12T05:18:28;8.00;;;4.85;;
70850;SDS011;58475;49.662;9.636;2023-08-12T05:20:54;6.43;;;4.70;;
70850;SDS011;58475;49.662;9.636;2023-08-12T05:23:20;7.50;;;4.35;;
70850;SDS011;58475;49.662;9.636;2023-08-12T05:25:46;9.00;;;5.25;;
70850;SDS011;58475;49.662;9.636;2023-08-12T05:28:12;9.93;;;5.20;;
70850;SDS011;58475;49.662;9.636;2023-08-12T05:30:37;8.10;;;4.60;;
70850;SDS011;58475;49.662;9.636;2023-08-12T05:33:03;11.45;;;7.00;;
70850;SDS011;58475;49.662;9.636;2023-08-12T05:35:32;9.40;;;6.60;;
70850;SDS011;58475;49.662;9.636;2023-08-12T05:38:00;9.15;;;5.45;;
70850;SDS011;58475;49.662;9.636;2023-08-12T05:40:26;7.25;;;4.32;;
70850;SDS011;58475;49.662;9.636;2023-08-12T05:42:52;7.45;;;4.30;;
70850;SDS011;58475;49.662;9.636;2023-08-12T05:45:17;8.10;;;4.28;;
70850;SDS011;58475;49.662;9.636;2023-08-12T05:47:42;8.98;;;4.68;;
70850;SDS011;58475;49.662;9.636;2023-08-12T05:50:08;6.82;;;4.20;;
70850;SDS011;58475;49.662;9.636;2023-08-12T05:52:34;11.57;;;4.47;;
70850;SDS011;58475;49.662;9.636;2023-08-12T05:54:59;9.63;;;4.60;;
70850;SDS011;58475;49.662;9.636;2023-08-12T05:57:25;7.78;;;4.75;;
70850;SDS011;58475;49.662;9.636;2023-08-12T05:59:50;8.48;;;4.20;;
70850;SDS011;58475;49.662;9.636;2023-08-12T06:02:16;10.05;;;4.40;;
70850;SDS011;58475;49.662;9.636;2023-08-12T06:04:42;10.73;;;4.75;;
70850;SDS011;58475;49.662;9.636;2023-08-12T06:07:07;8.80;;;4.45;;
70850;SDS011;58475;49.662;9.636;2023-08-12T06:09:33;8.77;;;4.72;;
70850;SDS011;58475;49.662;9.636;2023-08-12T06:11:58;8.77;;;4.75;;
70850;SDS011;58475;49.662;9.636;2023-08-12T06:14:23;9.63;;;5.18;;
70850;SDS011;58475;49.662;9.636;2023-08-12T06:16:49;7.55;;;4.45;;
70850;SDS011;58475;49.662;9.636;2023-08-12T06:19:14;8.55;;;4.30;;
70850;SDS011;58475;49.662;9.636;2023-08-12T06:21:39;9.45;;;4.18;;
70850;SDS011;58475;49.662;9.636;2023-08-12T06:24:05;10.63;;;4.20;;
70850;SDS011;58475;49.662;9.636;2023-08-12T06:26:30;10.05;;;4.68;;
70850;SDS011;58475;49.662;9.636;2023-08-12T06:28:56;10.23;;;4.40;;
70850;SDS011;58475;49.662;9.636;2023-08-12T06:31:21;7.45;;;4.57;;
70850;SDS011;58475;49.662;9.636;2023-08-12T06:33:46;7.28;;;4.30;;
70850;SDS011;58475;49.662;9.636;2023-08-12T06:36:12;11.25;;;4.47;;
70850;SDS011;58475;49.662;9.636;2023-08-12T06:38:37;9.23;;;4.30;;
70850;SDS011;58475;49.662;9.636;2023-08-12T06:41:02;7.13;;;4.22;;
70850;SDS011;58475;49.662;9.636;2023-08-12T06:43:28;6.30;;;3.90;;
70850;SDS011;58475;49.662;9.636;2023-08-12T06:45:53;7.88;;;4.25;;
70850;SDS011;58475;49.662;9.636;2023-08-12T06:48:19;8.50;;;4.30;;
70850;SDS011;58475;49.662;9.636;2023-08-12T06:50:44;10.45;;;4.47;;
70850;SDS011;58475;49.662;9.636;2023-08-12T06:53:10;6.97;;;4.60;;
70850;SDS011;58475;49.662;9.636;2023-08-12T06:55:35;8.95;;;4.20;;
70850;SDS011;58475;49.662;9.636;2023-08-12T06:58:01;7.35;;;4.00;;
70850;SDS011;58475;49.662;9.636;2023-08-12T07:00:27;6.90;;;4.00;;
70850;SDS011;58475;49.662;9.636;2023-08-12T07:02:53;10.48;;;4.32;;
70850;SDS011;58475;49.662;9.636;2023-08-12T07:05:24;8.23;;;4.32;;
70850;SDS011;58475;49.662;9.636;2023-08-12T07:07:49;8.45;;;4.38;;
70850;SDS011;58475;49.662;9.636;2023-08-12T07:10:17;9.43;;;4.30;;
70850;SDS011;58475;49.662;9.636;2023-08-12T07:12:43;7.93;;;4.43;;
70850;SDS011;58475;49.662;9.636;2023-08-12T07:15:08;9.48;;;4.30;;
70850;SDS011;58475;49.662;9.636;2023-08-12T07:17:35;8.95;;;4.10;;
70850;SDS011;58475;49.662;9.636;2023-08-12T07:20:01;7.40;;;4.38;;
70850;SDS011;58475;49.662;9.636;2023-08-12T07:22:27;7.43;;;4.22;;
70850;SDS011;58475;49.662;9.636;2023-08-12T07:24:52;8.65;;;4.50;;
70850;SDS011;58475;49.662;9.636;2023-08-12T07:27:19;8.82;;;4.53;;
70850;SDS011;58475;49.662;9.636;2023-08-12T07:29:45;8.13;;;4.18;;
70850;SDS011;58475;49.662;9.636;2023-08-12T07:32:10;6.78;;;4.22;;
70850;SDS011;58475;49.662;9.636;2023-08-12T07:34:37;8.88;;;4.30;;
70850;SDS011;58475;49.662;9.636;2023-08-12T07:37:02;7.10;;;4.13;;
70850;SDS011;58475;49.662;9.636;2023-08-12T07:39:28;8.07;;;4.75;;
70850;SDS011;58475;49.662;9.636;2023-08-12T07:41:53;10.40;;;4.50;;
70850;SDS011;58475;49.662;9.636;2023-08-12T07:44:19;6.75;;;3.90;;
70850;SDS011;58475;49.662;9.636;2023-08-12T07:46:44;6.28;;;4.22;;
70850;SDS011;58475;49.662;9.636;2023-08-12T07:49:09;7.43;;;4.00;;
70850;SDS011;58475;49.662;9.636;2023-08-12T07:51:35;7.28;;;3.92;;
70850;SDS011;58475;49.662;9.636;2023-08-12T07:54:00;7.35;;;4.07;;
70850;SDS011;58475;49.662;9.636;2023-08-12T07:56:26;14.57;;;4.50;;
70850;SDS011;58475;49.662;9.636;2023-08-12T07:58:51;7.88;;;4.40;;
70850;SDS011;58475;49.662;9.636;2023-08-12T08:01:17;7.13;;;4.10;;
70850;SDS011;58475;49.662;9.636;2023-08-12T08:03:42;7.63;;;4.38;;
70850;SDS011;58475;49.662;9.636;2023-08-12T08:06:07;7.63;;;4.20;;
70850;SDS011;58475;49.662;9.636;2023-08-12T08:08:33;7.53;;;4.22;;
70850;SDS011;58475;49.662;9.636;2023-08-12T08:10:58;7.60;;;4.18;;
70850;SDS011;58475;49.662;9.636;2023-08-12T08:13:23;6.53;;;3.72;;
70850;SDS011;58475;49.662;9.636;2023-08-12T08:15:49;6.57;;;3.97;;
70850;SDS011;58475;49.662;9.636;2023-08-12T08:18:14;8.25;;;4.18;;
70850;SDS011;58475;49.662;9.636;2023-08-12T08:20:41;8.13;;;4.00;;
70850;SDS011;58475;49.662;9.636;2023-08-12T08:23:08;8.18;;;4.30;;
70850;SDS011;58475;49.662;9.636;2023-08-12T08:25:33;9.30;;;4.05;;
70850;SDS011;58475;49.662;9.636;2023-08-12T08:27:59;9.90;;;4.28;;
70850;SDS011;58475;49.662;9.636;2023-08-12T08:30:24;6.93;;;3.92;;
70850;SDS011;58475;49.662;9.636;2023-08-12T08:32:50;6.70;;;3.95;;
70850;SDS011;58475;49.662;9.636;2023-08-12T08:35:16;8.40;;;4.20;;
70850;SDS011;58475;49.662;9.636;2023-08-12T08:37:41;8.15;;;4.45;;
70850;SDS011;58475;49.662;9.636;2023-08-12T08:40:07;9.88;;;4.43;;
70850;SDS011;58475;49.662;9.636;2023-08-12T08:42:33;9.52;;;4.35;;
70850;SDS011;58475;49.662;9.636;2023-08-12T08:45:00;7.63;;;4.00;;
70850;SDS011;58475;49.662;9.636;2023-08-12T08:47:27;7.20;;;4.25;;
70850;SDS011;58475;49.662;9.636;2023-08-12T08:49:56;7.32;;;3.88;;
70850;SDS011;58475;49.662;9.636;2023-08-12T08:52:22;6.47;;;4.30;;
70850;SDS011;58475;49.662;9.636;2023-08-12T08:54:48;6.70;;;4.10;;
70850;SDS011;58475;49.662;9.636;2023-08-12T08:57:14;8.27;;;3.90;;
70850;SDS011;58475;49.662;9.636;2023-08-12T08:59:40;8.25;;;4.30;;
70850;SDS011;58475;49.662;9.636;2023-08-12T09:02:05;7.70;;;4.40;;
70850;SDS011;58475;49.662;9.636;2023-08-12T09:04:38;7.28;;;4.35;;
70850;SDS011;58475;49.662;9.636;2023-08-12T09:07:04;6.85;;;4.10;;
70850;SDS011;58475;49.662;9.636;2023-08-12T09:09:30;7.50;;;4.30;;
70850;SDS011;58475;49.662;9.636;2023-08-12T09:11:57;6.70;;;4.45;;
70850;SDS011;58475;49.662;9.636;2023-08-12T09:14:22;7.78;;;4.40;;
70850;SDS011;58475;49.662;9.636;2023-08-12T09:16:49;7.45;;;4.70;;
70850;SDS011;58475;49.662;9.636;2023-08-12T09:19:14;6.28;;;4.22;;
70850;SDS011;58475;49.662;9.636;2023-08-12T09:21:40;7.78;;;4.70;;
70850;SDS011;58475;49.662;9.636;2023-08-12T09:24:07;6.60;;;4.20;;
70850;SDS011;58475;49.662;9.636;2023-08-12T09:26:33;9.75;;;5.07;;
70850;SDS011;58475;49.662;9.636;2023-08-12T09:28:59;8.40;;;4.55;;
70850;SDS011;58475;49.662;9.636;2023-08-12T09:31:29;6.65;;;4.53;;
70850;SDS011;58475;49.662;9.636;2023-08-12T09:33:58;6.67;;;4.17;;
70850;SDS011;58475;49.662;9.636;2023-08-12T09:36:33;7.72;;;5.53;;
70850;SDS011;58475;49.662;9.636;2023-08-12T09:38:59;11.00;;;6.15;;
70850;SDS011;58475;49.662;9.636;2023-08-12T09:41:25;8.30;;;5.30;;
70850;SDS011;58475;49.662;9.636;2023-08-12T09:43:51;10.40;;;5.40;;
70850;SDS011;58475;49.662;9.636;2023-08-12T09:46:18;8.98;;;5.80;;
70850;SDS011;58475;49.662;9.636;2023-08-12T09:48:46;6.85;;;4.90;;
70850;SDS011;58475;49.662;9.636;2023-08-12T09:51:12;6.93;;;4.80;;
70850;SDS011;58475;49.662;9.636;2023-08-12T09:53:41;6.35;;;4.45;;
70850;SDS011;58475;49.662;9.636;2023-08-12T09:56:07;6.85;;;4.40;;
70850;SDS011;58475;49.662;9.636;2023-08-12T09:58:36;6.47;;;4.30;;
70850;SDS011;58475;49.662;9.636;2023-08-12T10:01:02;6.78;;;4.32;;
70850;SDS011;58475;49.662;9.636;2023-08-12T10:03:33;7.47;;;4.20;;
70850;SDS011;58475;49.662;9.636;2023-08-12T10:05:59;8.13;;;4.20;;
70850;SDS011;58475;49.662;9.636;2023-08-12T10:08:27;7.18;;;4.18;;
70850;SDS011;58475;49.662;9.636;2023-08-12T10:10:52;6.88;;;4.32;;
70850;SDS011;58475;49.662;9.636;2023-08-12T10:13:19;8.85;;;4.32;;
70850;SDS011;58475;49.662;9.636;2023-08-12T10:15:49;6.78;;;4.30;;
70850;SDS011;58475;49.662;9.636;2023-08-12T10:18:15;7.35;;;4.30;;
70850;SDS011;58475;49.662;9.636;2023-08-12T10:20:40;7.13;;;4.15;;
70850;SDS011;58475;49.662;9.636;2023-08-12T10:23:09;6.47;;;4.35;;
70850;SDS011;58475;49.662;9.636;2023-08-12T10:25:41;7.85;;;4.43;;
70850;SDS011;58475;49.662;9.636;2023-08-12T10:28:08;7.28;;;4.25;;
70850;SDS011;58475;49.662;9.636;2023-08-12T10:30:34;7.45;;;4.22;;
70850;SDS011;58475;49.662;9.636;2023-08-12T10:33:00;6.75;;;4.50;;
70850;SDS011;58475;49.662;9.636;2023-08-12T10:35:42;8.68;;;4.30;;
70850;SDS011;58475;49.662;9.636;2023-08-12T10:38:10;5.70;;;4.07;;
70850;SDS011;58475;49.662;9.636;2023-08-12T10:40:36;6.22;;;4.18;;
70850;SDS011;58475;49.662;9.636;2023-08-12T10:43:02;6.82;;;4.18;;
70850;SDS011;58475;49.662;9.636;2023-08-12T10:45:40;6.55;;;3.95;;
70850;SDS011;58475;49.662;9.636;2023-08-12T10:48:24;7.38;;;4.57;;
70850;SDS011;58475;49.662;9.636;2023-08-12T10:50:54;8.05;;;4.65;;
70850;SDS011;58475;49.662;9.636;2023-08-12T10:53:24;7.50;;;4.22;;
70850;SDS011;58475;49.662;9.636;2023-08-12T10:56:03;8.18;;;4.30;;
70850;SDS011;58475;49.662;9.636;2023-08-12T10:58:33;8.27;;;4.50;;
70850;SDS011;58475;49.662;9.636;2023-08-12T11:00:59;7.47;;;4.38;;
70850;SDS011;58475;49.662;9.636;2023-08-12T11:03:25;7.55;;;4.25;;
70850;SDS011;58475;49.662;9.636;2023-08-12T11:05:51;7.32;;;4.20;;
70850;SDS011;58475;49.662;9.636;2023-08-12T11:08:23;6.57;;;4.35;;
70850;SDS011;58475;49.662;9.636;2023-08-12T11:10:51;7.10;;;4.22;;
70850;SDS011;58475;49.662;9.636;2023-08-12T11:13:18;6.15;;;4.07;;
70850;SDS011;58475;49.662;9.636;2023-08-12T11:15:44;6.28;;;4.30;;
70850;SDS011;58475;49.662;9.636;2023-08-12T11:18:15;6.88;;;4.47;;
70850;SDS011;58475;49.662;9.636;2023-08-12T11:20:42;5.70;;;3.83;;
70850;SDS011;58475;49.662;9.636;2023-08-12T11:23:08;7.10;;;4.13;;
70850;SDS011;58475;49.662;9.636;2023-08-12T11:25:35;8.05;;;4.18;;
70850;SDS011;58475;49.662;9.636;2023-08-12T11:28:01;7.43;;;4.13;;
70850;SDS011;58475;49.662;9.636;2023-08-12T11:30:27;6.13;;;4.00;;
70850;SDS011;58475;49.662;9.636;2023-08-12T11:32:53;6.88;;;4.03;;
70850;SDS011;58475;49.662;9.636;2023-08-12T11:35:21;8.68;;;4.50;;
70850;SDS011;58475;49.662;9.636;2023-08-12T11:37:48;7.07;;;4.35;;
70850;SDS011;58475;49.662;9.636;2023-08-12T11:40:15;6.90;;;3.95;;
70850;SDS011;58475;49.662;9.636;2023-08-12T11:42:46;8.23;;;3.70;;
70850;SDS011;58475;49.662;9.636;2023-08-12T11:45:13;6.38;;;4.07;;
70850;SDS011;58475;49.662;9.636;2023-08-12T11:47:39;7.88;;;3.88;;
70850;SDS011;58475;49.662;9.636;2023-08-12T11:50:09;8.82;;;4.55;;
70850;SDS011;58475;49.662;9.636;2023-08-12T11:55:02;7.63;;;4.13;;
70850;SDS011;58475;49.662;9.636;2023-08-12T11:57:28;6.68;;;4.00;;
70850;SDS011;58475;49.662;9.636;2023-08-12T12:00:00;8.32;;;3.97;;
70850;SDS011;58475;49.662;9.636;2023-08-12T12:02:48;7.10;;;3.90;;
70850;SDS011;58475;49.662;9.636;2023-08-12T12:05:15;11.57;;;4.20;;
70850;SDS011;58475;49.662;9.636;2023-08-12T12:07:41;8.32;;;3.63;;
70850;SDS011;58475;49.662;9.636;2023-08-12T12:10:12;7.88;;;3.40;;
70850;SDS011;58475;49.662;9.636;2023-08-12T12:12:38;6.43;;;3.50;;
70850;SDS011;58475;49.662;9.636;2023-08-12T12:15:03;7.28;;;3.67;;
70850;SDS011;58475;49.662;9.636;2023-08-12T12:17:30;7.63;;;3.60;;
70850;SDS011;58475;49.662;9.636;2023-08-12T12:19:59;6.00;;;3.20;;
70850;SDS011;58475;49.662;9.636;2023-08-12T12:22:29;6.18;;;3.25;;
70850;SDS011;58475;49.662;9.636;2023-08-12T12:27:34;6.88;;;4.10;;
70850;SDS011;58475;49.662;9.636;2023-08-12T12:30:00;7.47;;;3.80;;
70850;SDS011;58475;49.662;9.636;2023-08-12T12:32:25;8.18;;;3.92;;
70850;SDS011;58475;49.662;9.636;2023-08-12T12:34:51;6.85;;;3.67;;
70850;SDS011;58475;49.662;9.636;2023-08-12T12:37:18;6.55;;;3.35;;
70850;SDS011;58475;49.662;9.636;2023-08-12T12:39:43;5.97;;;2.70;;
70850;SDS011;58475;49.662;9.636;2023-08-12T12:42:10;4.38;;;2.15;;
70850;SDS011;58475;49.662;9.636;2023-08-12T12:44:35;8.35;;;3.00;;
70850;SDS011;58475;49.662;9.636;2023-08-12T12:47:01;4.63;;;2.33;;
70850;SDS011;58475;49.662;9.636;2023-08-12T12:49:27;7.32;;;2.30;;
70850;SDS011;58475;49.662;9.636;2023-08-12T12:51:53;6.18;;;2.40;;
70850;SDS011;58475;49.662;9.636;2023-08-12T12:54:19;4.00;;;1.95;;
70850;SDS011;58475;49.662;9.636;2023-08-12T12:56:44;4.65;;;1.90;;
70850;SDS011;58475;49.662;9.636;2023-08-12T12:59:10;4.57;;;1.80;;
70850;SDS011;58475;49.662;9.636;2023-08-12T13:01:35;5.65;;;1.80;;
70850;SDS011;58475;49.662;9.636;2023-08-12T13:04:01;4.30;;;1.90;;
70850;SDS011;58475;49.662;9.636;2023-08-12T13:06:28;5.68;;;1.85;;
70850;SDS011;58475;49.662;9.636;2023-08-12T13:08:53;5.63;;;2.00;;
70850;SDS011;58475;49.662;9.636;2023-08-12T13:11:19;5.55;;;1.70;;
70850;SDS011;58475;49.662;9.636;2023-08-12T13:13:44;4.95;;;2.00;;
70850;SDS011;58475;49.662;9.636;2023-08-12T13:16:10;5.40;;;1.70;;
70850;SDS011;58475;49.662;9.636;2023-08-12T13:18:35;6.55;;;1.85;;
70850;SDS011;58475;49.662;9.636;2023-08-12T13:21:00;4.25;;;1.60;;
70850;SDS011;58475;49.662;9.636;2023-08-12T13:23:26;6.80;;;1.70;;
70850;SDS011;58475;49.662;9.636;2023-08-12T13:25:52;4.47;;;1.80;;
70850;SDS011;58475;49.662;9.636;2023-08-12T13:28:17;4.63;;;1.85;;
70850;SDS011;58475;49.662;9.636;2023-08-12T13:30:43;4.55;;;1.90;;
70850;SDS011;58475;49.662;9.636;2023-08-12T13:33:09;5.20;;;1.65;;
70850;SDS011;58475;49.662;9.636;2023-08-12T13:35:35;4.85;;;1.88;;
70850;SDS011;58475;49.662;9.636;2023-08-12T13:38:00;3.95;;;1.83;;
70850;SDS011;58475;49.662;9.636;2023-08-12T13:40:25;5.35;;;2.00;;
70850;SDS011;58475;49.662;9.636;2023-08-12T13:42:51;5.68;;;1.83;;
70850;SDS011;58475;49.662;9.636;2023-08-12T13:45:16;4.28;;;1.70;;
70850;SDS011;58475;49.662;9.636;2023-08-12T13:47:42;5.80;;;1.70;;
70850;SDS011;58475;49.662;9.636;2023-08-12T13:50:07;3.80;;;1.80;;
70850;SDS011;58475;49.662;9.636;2023-08-12T13:52:33;5.88;;;1.90;;
70850;SDS011;58475;49.662;9.636;2023-08-12T13:54:58;3.45;;;1.80;;
70850;SDS011;58475;49.662;9.636;2023-08-12T13:57:24;6.32;;;2.00;;
70850;SDS011;58475;49.662;9.636;2023-08-12T13:59:50;4.30;;;1.73;;
70850;SDS011;58475;49.662;9.636;2023-08-12T14:02:15;3.65;;;1.67;;
70850;SDS011;58475;49.662;9.636;2023-08-12T14:04:41;5.25;;;1.98;;
70850;SDS011;58475;49.662;9.636;2023-08-12T14:07:06;6.65;;;2.00;;
70850;SDS011;58475;49.662;9.636;2023-08-12T14:09:33;3.95;;;1.75;;
70850;SDS011;58475;49.662;9.636;2023-08-12T14:11:58;5.00;;;1.77;;
70850;SDS011;58475;49.662;9.636;2023-08-12T14:14:24;3.65;;;1.70;;
70850;SDS011;58475;49.662;9.636;2023-08-12T14:16:53;3.88;;;1.88;;
70850;SDS011;58475;49.662;9.636;2023-08-12T14:19:19;4.43;;;1.60;;
70850;SDS011;58475;49.662;9.636;2023-08-12T14:21:45;4.40;;;1.90;;
70850;SDS011;58475;49.662;9.636;2023-08-12T14:24:10;4.57;;;1.88;;
70850;SDS011;58475;49.662;9.636;2023-08-12T14:26:36;3.42;;;1.65;;
70850;SDS011;58475;49.662;9.636;2023-08-12T14:29:02;4.70;;;1.75;;
70850;SDS011;58475;49.662;9.636;2023-08-12T14:31:27;5.05;;;1.60;;
70850;SDS011;58475;49.662;9.636;2023-08-12T14:33:52;3.67;;;1.60;;
70850;SDS011;58475;49.662;9.636;2023-08-12T14:36:18;3.65;;;1.80;;
70850;SDS011;58475;49.662;9.636;2023-08-12T14:38:46;3.88;;;2.08;;
70850;SDS011;58475;49.662;9.636;2023-08-12T14:41:11;4.22;;;1.90;;
70850;SDS011;58475;49.662;9.636;2023-08-12T14:43:37;4.20;;;2.00;;
70850;SDS011;58475;49.662;9.636;2023-08-12T14:46:02;3.95;;;1.55;;
70850;SDS011;58475;49.662;9.636;2023-08-12T14:48:27;3.47;;;1.58;;
70850;SDS011;58475;49.662;9.636;2023-08-12T14:50:53;3.45;;;1.48;;
70850;SDS011;58475;49.662;9.636;2023-08-12T14:53:20;4.28;;;1.55;;